sensor_id;sensor_type;location;lat;lon;timestamp;P1;durP1;ratioP1;P2;durP2;ratioP2
980;SDS011;479;53.514;9.994;2022-09-09T00:02:02;38.40;;;26.33;;
980;SDS011;479;53.514;9.994;2022-09-09T00:04:40;35.73;;;25.40;;
980;SDS011;479;53.514;9.994;2022-09-09T00:07:13;31.63;;;25.07;;
980;SDS011;479;53.514;9.994;2022-09-09T00:09:47;33.90;;;25.30;;
980;SDS011;479;53.514;9.994;2022-09-09T00:12:22;33.97;;;25.53;;
980;SDS011;479;53.514;9.994;2022-09-09T00:14:58;42.30;;;26.47;;
980;SDS011;479;53.514;9.994;2022-09-09T00:17:31;42.83;;;27.23;;
980;SDS011;479;53.514;9.994;2022-09-09T00:20:09;32.50;;;24.40;;
980;SDS011;479;53.514;9.994;2022-09-09T00:22:43;42.57;;;24.60;;
980;SDS011;479;53.514;9.994;2022-09-09T00:25:14;41.67;;;25.37;;
980;SDS011;479;53.514;9.994;2022-09-09T00:27:47;34.70;;;24.10;;
980;SDS011;479;53.514;9.994;2022-09-09T00:30:16;34.20;;;25.13;;
980;SDS011;479;53.514;9.994;2022-09-09T00:32:48;32.03;;;22.30;;
980;SDS011;479;53.514;9.994;2022-09-09T00:35:18;34.47;;;23.00;;
980;SDS011;479;53.514;9.994;2022-09-09T00:37:51;32.57;;;22.97;;
980;SDS011;479;53.514;9.994;2022-09-09T00:40:24;32.80;;;23.17;;
980;SDS011;479;53.514;9.994;2022-09-09T00:42:55;31.67;;;23.00;;
980;SDS011;479;53.514;9.994;2022-09-09T00:45:43;33.40;;;23.93;;
980;SDS011;479;53.514;9.994;2022-09-09T00:48:33;38.57;;;24.50;;
980;SDS011;479;53.514;9.994;2022-09-09T00:51:08;39.50;;;22.20;;
980;SDS011;479;53.514;9.994;2022-09-09T00:53:52;42.43;;;24.33;;
980;SDS011;479;53.514;9.994;2022-09-09T00:56:30;42.90;;;22.07;;
980;SDS011;479;53.514;9.994;2022-09-09T00:59:11;39.70;;;22.20;;
980;SDS011;479;53.514;9.994;2022-09-09T01:01:48;42.00;;;22.90;;
980;SDS011;479;53.514;9.994;2022-09-09T01:04:16;36.90;;;22.50;;
980;SDS011;479;53.514;9.994;2022-09-09T01:06:53;33.77;;;20.57;;
980;SDS011;479;53.514;9.994;2022-09-09T01:09:27;32.20;;;20.70;;
980;SDS011;479;53.514;9.994;2022-09-09T01:12:02;31.20;;;21.07;;
980;SDS011;479;53.514;9.994;2022-09-09T01:14:40;35.10;;;20.10;;
980;SDS011;479;53.514;9.994;2022-09-09T01:17:14;36.50;;;21.53;;
980;SDS011;479;53.514;9.994;2022-09-09T01:19:55;32.73;;;21.53;;
980;SDS011;479;53.514;9.994;2022-09-09T01:22:34;29.37;;;21.20;;
980;SDS011;479;53.514;9.994;2022-09-09T01:28:08;30.70;;;21.90;;
980;SDS011;479;53.514;9.994;2022-09-09T01:30:40;32.90;;;21.67;;
980;SDS011;479;53.514;9.994;2022-09-09T01:33:12;31.47;;;20.97;;
980;SDS011;479;53.514;9.994;2022-09-09T01:35:43;31.60;;;19.50;;
980;SDS011;479;53.514;9.994;2022-09-09T01:38:17;31.37;;;20.60;;
980;SDS011;479;53.514;9.994;2022-09-09T01:40:46;37.03;;;22.60;;
980;SDS011;479;53.514;9.994;2022-09-09T01:43:16;35.80;;;20.63;;
980;SDS011;479;53.514;9.994;2022-09-09T01:45:43;43.00;;;21.70;;
980;SDS011;479;53.514;9.994;2022-09-09T01:48:13;29.33;;;18.73;;
980;SDS011;479;53.514;9.994;2022-09-09T01:50:43;33.57;;;20.57;;
980;SDS011;479;53.514;9.994;2022-09-09T01:53:10;34.40;;;20.20;;
980;SDS011;479;53.514;9.994;2022-09-09T01:55:39;35.47;;;21.10;;
980;SDS011;479;53.514;9.994;2022-09-09T01:58:19;50.70;;;21.63;;
980;SDS011;479;53.514;9.994;2022-09-09T02:01:00;50.43;;;21.90;;
980;SDS011;479;53.514;9.994;2022-09-09T02:03:31;41.93;;;22.57;;
980;SDS011;479;53.514;9.994;2022-09-09T02:06:14;39.17;;;21.23;;
980;SDS011;479;53.514;9.994;2022-09-09T02:08:49;35.80;;;22.97;;
980;SDS011;479;53.514;9.994;2022-09-09T02:11:17;34.90;;;22.53;;
980;SDS011;479;53.514;9.994;2022-09-09T02:13:59;35.03;;;21.90;;
980;SDS011;479;53.514;9.994;2022-09-09T02:16:30;38.20;;;21.70;;
980;SDS011;479;53.514;9.994;2022-09-09T02:19:01;37.23;;;22.07;;
980;SDS011;479;53.514;9.994;2022-09-09T02:21:55;44.87;;;20.20;;
980;SDS011;479;53.514;9.994;2022-09-09T02:24:24;33.17;;;21.63;;
980;SDS011;479;53.514;9.994;2022-09-09T02:27:05;59.07;;;23.10;;
980;SDS011;479;53.514;9.994;2022-09-09T02:29:38;68.27;;;22.47;;
980;SDS011;479;53.514;9.994;2022-09-09T02:32:08;37.30;;;20.50;;
980;SDS011;479;53.514;9.994;2022-09-09T02:34:40;28.87;;;19.50;;
980;SDS011;479;53.514;9.994;2022-09-09T02:37:10;29.50;;;21.20;;
980;SDS011;479;53.514;9.994;2022-09-09T02:39:42;28.63;;;18.97;;
980;SDS011;479;53.514;9.994;2022-09-09T02:42:13;30.17;;;18.70;;
980;SDS011;479;53.514;9.994;2022-09-09T02:44:43;25.93;;;19.33;;
980;SDS011;479;53.514;9.994;2022-09-09T02:47:16;28.43;;;19.00;;
980;SDS011;479;53.514;9.994;2022-09-09T02:49:54;24.00;;;19.30;;
980;SDS011;479;53.514;9.994;2022-09-09T02:52:32;28.40;;;18.20;;
980;SDS011;479;53.514;9.994;2022-09-09T02:55:07;35.10;;;17.20;;
980;SDS011;479;53.514;9.994;2022-09-09T02:57:41;38.77;;;19.10;;
980;SDS011;479;53.514;9.994;2022-09-09T03:00:15;37.63;;;18.93;;
980;SDS011;479;53.514;9.994;2022-09-09T03:02:44;28.93;;;17.00;;
980;SDS011;479;53.514;9.994;2022-09-09T03:05:11;35.77;;;18.40;;
980;SDS011;479;53.514;9.994;2022-09-09T03:07:39;25.00;;;17.63;;
980;SDS011;479;53.514;9.994;2022-09-09T03:10:08;32.07;;;19.10;;
980;SDS011;479;53.514;9.994;2022-09-09T03:12:36;29.63;;;18.40;;
980;SDS011;479;53.514;9.994;2022-09-09T03:15:04;27.77;;;18.37;;
980;SDS011;479;53.514;9.994;2022-09-09T03:17:34;27.93;;;18.07;;
980;SDS011;479;53.514;9.994;2022-09-09T03:20:01;37.37;;;18.60;;
980;SDS011;479;53.514;9.994;2022-09-09T03:22:29;38.33;;;19.07;;
980;SDS011;479;53.514;9.994;2022-09-09T03:24:58;33.20;;;16.47;;
980;SDS011;479;53.514;9.994;2022-09-09T03:27:25;36.47;;;19.17;;
980;SDS011;479;53.514;9.994;2022-09-09T03:29:52;56.87;;;19.20;;
980;SDS011;479;53.514;9.994;2022-09-09T03:32:22;55.70;;;19.00;;
980;SDS011;479;53.514;9.994;2022-09-09T03:34:53;44.67;;;17.33;;
980;SDS011;479;53.514;9.994;2022-09-09T03:37:20;35.93;;;18.70;;
980;SDS011;479;53.514;9.994;2022-09-09T03:39:49;34.97;;;16.80;;
980;SDS011;479;53.514;9.994;2022-09-09T03:42:17;26.47;;;17.77;;
980;SDS011;479;53.514;9.994;2022-09-09T03:44:46;26.87;;;16.73;;
980;SDS011;479;53.514;9.994;2022-09-09T03:47:16;50.37;;;18.47;;
980;SDS011;479;53.514;9.994;2022-09-09T03:49:44;25.43;;;19.07;;
980;SDS011;479;53.514;9.994;2022-09-09T03:52:13;45.40;;;17.70;;
980;SDS011;479;53.514;9.994;2022-09-09T03:54:40;39.37;;;18.30;;
980;SDS011;479;53.514;9.994;2022-09-09T03:57:08;31.50;;;17.00;;
980;SDS011;479;53.514;9.994;2022-09-09T03:59:35;27.90;;;16.70;;
980;SDS011;479;53.514;9.994;2022-09-09T04:02:03;26.57;;;18.77;;
980;SDS011;479;53.514;9.994;2022-09-09T04:04:30;23.80;;;16.40;;
980;SDS011;479;53.514;9.994;2022-09-09T04:06:57;26.53;;;17.80;;
980;SDS011;479;53.514;9.994;2022-09-09T04:09:26;39.87;;;18.47;;
980;SDS011;479;53.514;9.994;2022-09-09T04:11:53;29.23;;;17.23;;
980;SDS011;479;53.514;9.994;2022-09-09T04:14:20;28.43;;;17.63;;
980;SDS011;479;53.514;9.994;2022-09-09T04:16:47;22.30;;;17.40;;
980;SDS011;479;53.514;9.994;2022-09-09T04:19:14;22.40;;;16.37;;
980;SDS011;479;53.514;9.994;2022-09-09T04:21:43;26.83;;;17.60;;
980;SDS011;479;53.514;9.994;2022-09-09T04:24:10;20.00;;;16.23;;
980;SDS011;479;53.514;9.994;2022-09-09T04:26:38;22.83;;;16.63;;
980;SDS011;479;53.514;9.994;2022-09-09T04:29:06;25.10;;;17.80;;
980;SDS011;479;53.514;9.994;2022-09-09T04:31:33;22.43;;;16.90;;
980;SDS011;479;53.514;9.994;2022-09-09T04:34:00;23.10;;;16.57;;
980;SDS011;479;53.514;9.994;2022-09-09T04:36:31;21.57;;;16.97;;
980;SDS011;479;53.514;9.994;2022-09-09T04:39:02;19.77;;;15.63;;
980;SDS011;479;53.514;9.994;2022-09-09T04:41:29;24.53;;;17.10;;
980;SDS011;479;53.514;9.994;2022-09-09T04:43:58;20.40;;;16.17;;
980;SDS011;479;53.514;9.994;2022-09-09T04:46:26;22.40;;;15.83;;
980;SDS011;479;53.514;9.994;2022-09-09T04:48:53;22.97;;;17.40;;
980;SDS011;479;53.514;9.994;2022-09-09T04:51:22;21.50;;;16.93;;
980;SDS011;479;53.514;9.994;2022-09-09T04:53:50;20.00;;;16.13;;
980;SDS011;479;53.514;9.994;2022-09-09T04:56:19;19.53;;;15.60;;
980;SDS011;479;53.514;9.994;2022-09-09T04:58:58;22.73;;;17.13;;
980;SDS011;479;53.514;9.994;2022-09-09T05:01:43;21.17;;;16.43;;
980;SDS011;479;53.514;9.994;2022-09-09T05:04:10;17.23;;;15.03;;
980;SDS011;479;53.514;9.994;2022-09-09T05:06:37;21.83;;;16.10;;
980;SDS011;479;53.514;9.994;2022-09-09T05:09:04;20.10;;;15.63;;
980;SDS011;479;53.514;9.994;2022-09-09T05:11:32;21.17;;;15.77;;
980;SDS011;479;53.514;9.994;2022-09-09T05:14:29;18.40;;;15.70;;
980;SDS011;479;53.514;9.994;2022-09-09T05:16:56;21.63;;;16.93;;
980;SDS011;479;53.514;9.994;2022-09-09T05:19:23;23.60;;;16.30;;
980;SDS011;479;53.514;9.994;2022-09-09T05:21:51;21.53;;;16.43;;
980;SDS011;479;53.514;9.994;2022-09-09T05:24:24;19.50;;;16.40;;
980;SDS011;479;53.514;9.994;2022-09-09T05:26:54;20.23;;;15.30;;
980;SDS011;479;53.514;9.994;2022-09-09T05:29:25;19.80;;;17.00;;
980;SDS011;479;53.514;9.994;2022-09-09T05:31:53;20.30;;;17.33;;
980;SDS011;479;53.514;9.994;2022-09-09T05:34:20;19.80;;;16.57;;
980;SDS011;479;53.514;9.994;2022-09-09T05:36:49;22.63;;;17.10;;
980;SDS011;479;53.514;9.994;2022-09-09T05:39:16;20.93;;;16.80;;
980;SDS011;479;53.514;9.994;2022-09-09T05:41:43;21.47;;;16.67;;
980;SDS011;479;53.514;9.994;2022-09-09T05:44:10;17.60;;;14.80;;
980;SDS011;479;53.514;9.994;2022-09-09T05:46:38;17.67;;;14.70;;
980;SDS011;479;53.514;9.994;2022-09-09T05:49:07;17.40;;;14.47;;
980;SDS011;479;53.514;9.994;2022-09-09T05:51:35;18.03;;;14.90;;
980;SDS011;479;53.514;9.994;2022-09-09T05:54:06;16.37;;;13.07;;
980;SDS011;479;53.514;9.994;2022-09-09T05:56:38;15.50;;;13.80;;
980;SDS011;479;53.514;9.994;2022-09-09T05:59:06;14.83;;;13.33;;
980;SDS011;479;53.514;9.994;2022-09-09T06:01:34;15.90;;;14.27;;
980;SDS011;479;53.514;9.994;2022-09-09T06:04:07;16.43;;;12.47;;
980;SDS011;479;53.514;9.994;2022-09-09T06:06:35;14.13;;;12.63;;
980;SDS011;479;53.514;9.994;2022-09-09T06:09:10;13.90;;;12.30;;
980;SDS011;479;53.514;9.994;2022-09-09T06:11:41;14.43;;;13.03;;
980;SDS011;479;53.514;9.994;2022-09-09T06:14:08;13.27;;;12.07;;
980;SDS011;479;53.514;9.994;2022-09-09T06:16:36;16.90;;;15.33;;
980;SDS011;479;53.514;9.994;2022-09-09T06:19:07;12.60;;;11.40;;
980;SDS011;479;53.514;9.994;2022-09-09T06:21:34;14.90;;;12.57;;
980;SDS011;479;53.514;9.994;2022-09-09T06:24:05;11.43;;;10.23;;
980;SDS011;479;53.514;9.994;2022-09-09T06:26:33;11.43;;;10.23;;
980;SDS011;479;53.514;9.994;2022-09-09T06:29:02;11.60;;;10.40;;
980;SDS011;479;53.514;9.994;2022-09-09T06:31:30;11.33;;;10.23;;
980;SDS011;479;53.514;9.994;2022-09-09T06:34:04;11.20;;;10.00;;
980;SDS011;479;53.514;9.994;2022-09-09T06:36:35;11.07;;;10.07;;
980;SDS011;479;53.514;9.994;2022-09-09T06:39:03;11.63;;;10.53;;
980;SDS011;479;53.514;9.994;2022-09-09T06:41:31;10.87;;;9.80;;
980;SDS011;479;53.514;9.994;2022-09-09T06:44:01;10.77;;;9.70;;
980;SDS011;479;53.514;9.994;2022-09-09T06:46:33;12.20;;;10.00;;
980;SDS011;479;53.514;9.994;2022-09-09T06:49:01;10.80;;;9.30;;
980;SDS011;479;53.514;9.994;2022-09-09T06:51:29;12.73;;;9.57;;
980;SDS011;479;53.514;9.994;2022-09-09T06:53:58;10.70;;;9.70;;
980;SDS011;479;53.514;9.994;2022-09-09T06:56:28;10.87;;;9.77;;
980;SDS011;479;53.514;9.994;2022-09-09T06:59:01;10.10;;;9.10;;
980;SDS011;479;53.514;9.994;2022-09-09T07:01:32;10.80;;;9.27;;
980;SDS011;479;53.514;9.994;2022-09-09T07:04:02;9.33;;;8.43;;
980;SDS011;479;53.514;9.994;2022-09-09T07:06:34;9.03;;;8.20;;
980;SDS011;479;53.514;9.994;2022-09-09T07:09:04;12.93;;;9.03;;
980;SDS011;479;53.514;9.994;2022-09-09T07:11:34;9.50;;;8.70;;
980;SDS011;479;53.514;9.994;2022-09-09T07:14:04;10.23;;;9.20;;
980;SDS011;479;53.514;9.994;2022-09-09T07:16:31;9.80;;;8.30;;
980;SDS011;479;53.514;9.994;2022-09-09T07:18:59;9.50;;;8.70;;
980;SDS011;479;53.514;9.994;2022-09-09T07:21:28;9.93;;;9.13;;
980;SDS011;479;53.514;9.994;2022-09-09T07:23:56;8.70;;;7.80;;
980;SDS011;479;53.514;9.994;2022-09-09T07:26:26;9.60;;;8.70;;
980;SDS011;479;53.514;9.994;2022-09-09T07:28:54;11.53;;;8.70;;
980;SDS011;479;53.514;9.994;2022-09-09T07:31:23;9.00;;;7.83;;
980;SDS011;479;53.514;9.994;2022-09-09T07:33:52;8.50;;;7.70;;
980;SDS011;479;53.514;9.994;2022-09-09T07:36:20;10.67;;;9.63;;
980;SDS011;479;53.514;9.994;2022-09-09T07:38:49;17.47;;;15.60;;
980;SDS011;479;53.514;9.994;2022-09-09T07:41:18;9.70;;;8.77;;
980;SDS011;479;53.514;9.994;2022-09-09T07:43:49;8.53;;;7.40;;
980;SDS011;479;53.514;9.994;2022-09-09T07:46:19;8.20;;;7.60;;
980;SDS011;479;53.514;9.994;2022-09-09T07:48:49;9.37;;;7.43;;
980;SDS011;479;53.514;9.994;2022-09-09T07:51:20;7.30;;;6.60;;
980;SDS011;479;53.514;9.994;2022-09-09T07:53:51;7.70;;;7.00;;
980;SDS011;479;53.514;9.994;2022-09-09T07:56:20;7.30;;;6.43;;
980;SDS011;479;53.514;9.994;2022-09-09T07:58:47;7.93;;;7.10;;
980;SDS011;479;53.514;9.994;2022-09-09T08:01:18;7.80;;;6.33;;
980;SDS011;479;53.514;9.994;2022-09-09T08:03:47;10.10;;;7.87;;
980;SDS011;479;53.514;9.994;2022-09-09T08:06:19;7.70;;;6.80;;
980;SDS011;479;53.514;9.994;2022-09-09T08:08:49;8.83;;;5.90;;
980;SDS011;479;53.514;9.994;2022-09-09T08:11:16;6.23;;;5.67;;
980;SDS011;479;53.514;9.994;2022-09-09T08:13:43;6.50;;;5.90;;
980;SDS011;479;53.514;9.994;2022-09-09T08:16:14;6.30;;;5.70;;
980;SDS011;479;53.514;9.994;2022-09-09T08:18:42;6.03;;;5.60;;
980;SDS011;479;53.514;9.994;2022-09-09T08:21:13;5.60;;;4.83;;
980;SDS011;479;53.514;9.994;2022-09-09T08:23:43;5.17;;;4.77;;
980;SDS011;479;53.514;9.994;2022-09-09T08:26:15;5.47;;;4.97;;
980;SDS011;479;53.514;9.994;2022-09-09T08:28:46;5.87;;;5.37;;
980;SDS011;479;53.514;9.994;2022-09-09T08:31:16;4.90;;;4.57;;
980;SDS011;479;53.514;9.994;2022-09-09T08:33:44;9.90;;;8.90;;
980;SDS011;479;53.514;9.994;2022-09-09T08:36:12;5.20;;;4.70;;
980;SDS011;479;53.514;9.994;2022-09-09T08:38:40;5.47;;;5.07;;
980;SDS011;479;53.514;9.994;2022-09-09T08:41:13;5.53;;;5.00;;
980;SDS011;479;53.514;9.994;2022-09-09T08:43:58;5.40;;;4.83;;
980;SDS011;479;53.514;9.994;2022-09-09T08:46:32;5.40;;;4.53;;
980;SDS011;479;53.514;9.994;2022-09-09T08:49:11;6.00;;;5.50;;
980;SDS011;479;53.514;9.994;2022-09-09T08:51:48;5.37;;;4.97;;
980;SDS011;479;53.514;9.994;2022-09-09T08:54:18;4.50;;;4.20;;
980;SDS011;479;53.514;9.994;2022-09-09T08:56:45;4.97;;;4.47;;
980;SDS011;479;53.514;9.994;2022-09-09T08:59:13;4.30;;;3.90;;
980;SDS011;479;53.514;9.994;2022-09-09T09:01:49;4.40;;;4.00;;
980;SDS011;479;53.514;9.994;2022-09-09T09:04:38;5.10;;;4.60;;
980;SDS011;479;53.514;9.994;2022-09-09T09:07:21;5.13;;;4.63;;
980;SDS011;479;53.514;9.994;2022-09-09T09:09:57;4.13;;;3.70;;
980;SDS011;479;53.514;9.994;2022-09-09T09:12:35;5.00;;;3.90;;
980;SDS011;479;53.514;9.994;2022-09-09T09:15:09;4.13;;;3.60;;
980;SDS011;479;53.514;9.994;2022-09-09T09:17:44;5.13;;;4.50;;
980;SDS011;479;53.514;9.994;2022-09-09T09:20:11;6.30;;;3.90;;
980;SDS011;479;53.514;9.994;2022-09-09T09:22:43;4.73;;;4.33;;
980;SDS011;479;53.514;9.994;2022-09-09T09:25:17;4.70;;;4.30;;
980;SDS011;479;53.514;9.994;2022-09-09T09:27:49;7.33;;;6.63;;
980;SDS011;479;53.514;9.994;2022-09-09T09:30:24;4.10;;;3.77;;
980;SDS011;479;53.514;9.994;2022-09-09T09:32:59;3.80;;;3.50;;
980;SDS011;479;53.514;9.994;2022-09-09T09:35:30;4.43;;;4.13;;
980;SDS011;479;53.514;9.994;2022-09-09T09:37:56;5.07;;;4.33;;
980;SDS011;479;53.514;9.994;2022-09-09T09:40:27;3.90;;;3.60;;
980;SDS011;479;53.514;9.994;2022-09-09T09:42:55;3.53;;;3.30;;
980;SDS011;479;53.514;9.994;2022-09-09T09:45:28;4.23;;;3.70;;
980;SDS011;479;53.514;9.994;2022-09-09T09:48:03;4.30;;;4.00;;
980;SDS011;479;53.514;9.994;2022-09-09T09:50:34;3.60;;;3.30;;
980;SDS011;479;53.514;9.994;2022-09-09T09:53:17;4.83;;;2.77;;
980;SDS011;479;53.514;9.994;2022-09-09T09:55:49;3.90;;;3.60;;
980;SDS011;479;53.514;9.994;2022-09-09T09:58:23;3.60;;;3.30;;
980;SDS011;479;53.514;9.994;2022-09-09T10:00:52;4.17;;;3.83;;
980;SDS011;479;53.514;9.994;2022-09-09T10:03:26;3.40;;;3.00;;
980;SDS011;479;53.514;9.994;2022-09-09T10:05:56;3.60;;;3.30;;
980;SDS011;479;53.514;9.994;2022-09-09T10:08:23;2.80;;;2.43;;
980;SDS011;479;53.514;9.994;2022-09-09T10:10:54;3.60;;;2.80;;
980;SDS011;479;53.514;9.994;2022-09-09T10:13:35;3.00;;;2.30;;
980;SDS011;479;53.514;9.994;2022-09-09T10:16:13;2.73;;;2.33;;
980;SDS011;479;53.514;9.994;2022-09-09T10:21:43;2.70;;;2.50;;
980;SDS011;479;53.514;9.994;2022-09-09T10:24:25;2.53;;;2.17;;
980;SDS011;479;53.514;9.994;2022-09-09T10:27:14;2.83;;;2.20;;
980;SDS011;479;53.514;9.994;2022-09-09T10:29:55;3.10;;;2.43;;
980;SDS011;479;53.514;9.994;2022-09-09T10:32:31;2.77;;;2.50;;
980;SDS011;479;53.514;9.994;2022-09-09T10:35:08;2.80;;;2.53;;
980;SDS011;479;53.514;9.994;2022-09-09T10:37:46;6.77;;;4.97;;
980;SDS011;479;53.514;9.994;2022-09-09T10:40:32;1.80;;;1.70;;
980;SDS011;479;53.514;9.994;2022-09-09T10:43:06;3.17;;;2.03;;
980;SDS011;479;53.514;9.994;2022-09-09T10:45:46;2.20;;;1.70;;
980;SDS011;479;53.514;9.994;2022-09-09T10:48:30;1.93;;;1.83;;
980;SDS011;479;53.514;9.994;2022-09-09T10:51:07;2.00;;;1.77;;
980;SDS011;479;53.514;9.994;2022-09-09T10:53:44;1.80;;;1.40;;
980;SDS011;479;53.514;9.994;2022-09-09T10:56:19;2.20;;;2.00;;
980;SDS011;479;53.514;9.994;2022-09-09T10:58:50;2.07;;;1.60;;
980;SDS011;479;53.514;9.994;2022-09-09T11:01:22;1.97;;;1.87;;
980;SDS011;479;53.514;9.994;2022-09-09T11:03:52;2.70;;;2.20;;
980;SDS011;479;53.514;9.994;2022-09-09T11:06:27;2.40;;;1.70;;
980;SDS011;479;53.514;9.994;2022-09-09T11:08:58;2.30;;;1.90;;
980;SDS011;479;53.514;9.994;2022-09-09T11:11:29;2.87;;;1.80;;
980;SDS011;479;53.514;9.994;2022-09-09T11:14:01;6.00;;;2.63;;
980;SDS011;479;53.514;9.994;2022-09-09T11:16:36;4.13;;;2.60;;
980;SDS011;479;53.514;9.994;2022-09-09T11:19:11;8.67;;;7.83;;
980;SDS011;479;53.514;9.994;2022-09-09T11:21:48;5.83;;;5.23;;
980;SDS011;479;53.514;9.994;2022-09-09T11:24:18;3.80;;;2.40;;
980;SDS011;479;53.514;9.994;2022-09-09T11:26:50;2.53;;;2.33;;
980;SDS011;479;53.514;9.994;2022-09-09T11:29:25;5.23;;;3.07;;
980;SDS011;479;53.514;9.994;2022-09-09T11:32:13;3.30;;;3.00;;
980;SDS011;479;53.514;9.994;2022-09-09T11:34:53;2.63;;;2.30;;
980;SDS011;479;53.514;9.994;2022-09-09T11:37:37;5.87;;;2.23;;
980;SDS011;479;53.514;9.994;2022-09-09T11:40:19;3.87;;;2.10;;
980;SDS011;479;53.514;9.994;2022-09-09T11:42:59;3.07;;;2.73;;
980;SDS011;479;53.514;9.994;2022-09-09T11:45:29;3.90;;;2.80;;
980;SDS011;479;53.514;9.994;2022-09-09T11:47:57;2.93;;;2.70;;
980;SDS011;479;53.514;9.994;2022-09-09T11:50:30;2.80;;;2.60;;
980;SDS011;479;53.514;9.994;2022-09-09T11:53:16;4.20;;;2.33;;
980;SDS011;479;53.514;9.994;2022-09-09T11:55:48;2.90;;;2.70;;
980;SDS011;479;53.514;9.994;2022-09-09T11:58:32;3.47;;;3.17;;
980;SDS011;479;53.514;9.994;2022-09-09T12:01:12;3.67;;;2.60;;
980;SDS011;479;53.514;9.994;2022-09-09T12:03:41;4.87;;;2.70;;
980;SDS011;479;53.514;9.994;2022-09-09T12:06:12;4.40;;;3.10;;
980;SDS011;479;53.514;9.994;2022-09-09T12:08:48;3.20;;;2.87;;
980;SDS011;479;53.514;9.994;2022-09-09T12:11:23;3.00;;;2.80;;
980;SDS011;479;53.514;9.994;2022-09-09T12:13:52;5.47;;;2.93;;
980;SDS011;479;53.514;9.994;2022-09-09T12:16:31;3.40;;;3.10;;
980;SDS011;479;53.514;9.994;2022-09-09T12:19:03;3.17;;;2.87;;
980;SDS011;479;53.514;9.994;2022-09-09T12:21:33;2.67;;;2.47;;
980;SDS011;479;53.514;9.994;2022-09-09T12:24:08;3.20;;;2.30;;
980;SDS011;479;53.514;9.994;2022-09-09T12:26:37;3.57;;;2.67;;
980;SDS011;479;53.514;9.994;2022-09-09T12:29:12;3.40;;;2.83;;
980;SDS011;479;53.514;9.994;2022-09-09T12:31:50;3.93;;;2.53;;
980;SDS011;479;53.514;9.994;2022-09-09T12:34:25;3.77;;;2.90;;
980;SDS011;479;53.514;9.994;2022-09-09T12:37:03;4.40;;;3.87;;
980;SDS011;479;53.514;9.994;2022-09-09T12:39:37;3.50;;;3.20;;
980;SDS011;479;53.514;9.994;2022-09-09T12:42:15;3.57;;;3.27;;
980;SDS011;479;53.514;9.994;2022-09-09T12:44:50;2.80;;;2.70;;
980;SDS011;479;53.514;9.994;2022-09-09T12:47:18;3.87;;;3.20;;
980;SDS011;479;53.514;9.994;2022-09-09T12:49:47;3.17;;;2.93;;
980;SDS011;479;53.514;9.994;2022-09-09T12:52:18;4.73;;;3.70;;
980;SDS011;479;53.514;9.994;2022-09-09T12:54:51;4.40;;;3.73;;
980;SDS011;479;53.514;9.994;2022-09-09T12:57:19;7.40;;;4.30;;
980;SDS011;479;53.514;9.994;2022-09-09T12:59:49;4.27;;;4.00;;
980;SDS011;479;53.514;9.994;2022-09-09T13:02:18;4.47;;;4.17;;
980;SDS011;479;53.514;9.994;2022-09-09T13:04:47;6.03;;;4.20;;
980;SDS011;479;53.514;9.994;2022-09-09T13:07:15;7.30;;;4.40;;
980;SDS011;479;53.514;9.994;2022-09-09T13:09:42;4.97;;;4.47;;
980;SDS011;479;53.514;9.994;2022-09-09T13:12:13;5.20;;;4.70;;
980;SDS011;479;53.514;9.994;2022-09-09T13:14:43;9.93;;;5.80;;
980;SDS011;479;53.514;9.994;2022-09-09T13:17:17;9.00;;;5.83;;
980;SDS011;479;53.514;9.994;2022-09-09T13:19:46;6.20;;;5.70;;
980;SDS011;479;53.514;9.994;2022-09-09T13:22:20;6.30;;;5.90;;
980;SDS011;479;53.514;9.994;2022-09-09T13:24:57;12.33;;;7.30;;
980;SDS011;479;53.514;9.994;2022-09-09T13:27:30;8.50;;;5.03;;
980;SDS011;479;53.514;9.994;2022-09-09T13:29:59;6.17;;;5.57;;
980;SDS011;479;53.514;9.994;2022-09-09T13:32:27;5.00;;;4.60;;
980;SDS011;479;53.514;9.994;2022-09-09T13:34:56;8.43;;;5.70;;
980;SDS011;479;53.514;9.994;2022-09-09T13:37:26;8.70;;;5.33;;
980;SDS011;479;53.514;9.994;2022-09-09T13:39:58;5.67;;;5.27;;
980;SDS011;479;53.514;9.994;2022-09-09T13:42:25;6.63;;;5.53;;
980;SDS011;479;53.514;9.994;2022-09-09T13:44:55;6.03;;;5.50;;
980;SDS011;479;53.514;9.994;2022-09-09T13:47:27;9.03;;;6.93;;
980;SDS011;479;53.514;9.994;2022-09-09T13:49:57;6.20;;;5.40;;
980;SDS011;479;53.514;9.994;2022-09-09T13:52:24;6.83;;;6.23;;
980;SDS011;479;53.514;9.994;2022-09-09T13:54:55;8.63;;;7.73;;
980;SDS011;479;53.514;9.994;2022-09-09T13:57:23;7.53;;;6.10;;
980;SDS011;479;53.514;9.994;2022-09-09T13:59:52;8.73;;;6.27;;
980;SDS011;479;53.514;9.994;2022-09-09T14:02:21;6.50;;;5.87;;
980;SDS011;479;53.514;9.994;2022-09-09T14:04:48;7.23;;;5.43;;
980;SDS011;479;53.514;9.994;2022-09-09T14:07:16;7.90;;;6.27;;
980;SDS011;479;53.514;9.994;2022-09-09T14:09:44;9.60;;;6.67;;
980;SDS011;479;53.514;9.994;2022-09-09T14:12:15;8.13;;;7.47;;
980;SDS011;479;53.514;9.994;2022-09-09T14:14:43;7.60;;;6.60;;
980;SDS011;479;53.514;9.994;2022-09-09T14:17:10;6.57;;;6.10;;
980;SDS011;479;53.514;9.994;2022-09-09T14:19:38;7.40;;;6.80;;
980;SDS011;479;53.514;9.994;2022-09-09T14:22:05;8.77;;;7.10;;
980;SDS011;479;53.514;9.994;2022-09-09T14:24:32;7.20;;;6.53;;
980;SDS011;479;53.514;9.994;2022-09-09T14:26:59;6.20;;;5.70;;
980;SDS011;479;53.514;9.994;2022-09-09T14:29:25;6.83;;;6.33;;
980;SDS011;479;53.514;9.994;2022-09-09T14:31:52;6.00;;;5.50;;
980;SDS011;479;53.514;9.994;2022-09-09T14:34:20;5.43;;;4.07;;
980;SDS011;479;53.514;9.994;2022-09-09T14:36:48;4.60;;;4.30;;
980;SDS011;479;53.514;9.994;2022-09-09T14:39:16;4.33;;;4.00;;
980;SDS011;479;53.514;9.994;2022-09-09T14:41:43;3.73;;;3.43;;
980;SDS011;479;53.514;9.994;2022-09-09T14:44:10;4.27;;;3.40;;
980;SDS011;479;53.514;9.994;2022-09-09T14:46:37;3.73;;;3.43;;
980;SDS011;479;53.514;9.994;2022-09-09T14:49:04;5.83;;;5.33;;
980;SDS011;479;53.514;9.994;2022-09-09T14:51:31;3.07;;;2.87;;
980;SDS011;479;53.514;9.994;2022-09-09T14:53:59;3.90;;;3.60;;
980;SDS011;479;53.514;9.994;2022-09-09T14:56:27;60.63;;;51.80;;
980;SDS011;479;53.514;9.994;2022-09-09T14:58:56;4.03;;;3.60;;
980;SDS011;479;53.514;9.994;2022-09-09T15:01:26;3.60;;;3.33;;
980;SDS011;479;53.514;9.994;2022-09-09T15:03:55;4.00;;;3.73;;
980;SDS011;479;53.514;9.994;2022-09-09T15:06:23;4.20;;;3.80;;
980;SDS011;479;53.514;9.994;2022-09-09T15:08:52;3.97;;;3.63;;
980;SDS011;479;53.514;9.994;2022-09-09T15:11:21;7.07;;;6.30;;
980;SDS011;479;53.514;9.994;2022-09-09T15:13:50;4.80;;;4.40;;
980;SDS011;479;53.514;9.994;2022-09-09T15:16:18;35.60;;;31.83;;
980;SDS011;479;53.514;9.994;2022-09-09T15:18:46;5.73;;;4.07;;
980;SDS011;479;53.514;9.994;2022-09-09T15:21:13;4.67;;;4.13;;
980;SDS011;479;53.514;9.994;2022-09-09T15:23:42;5.50;;;5.10;;
980;SDS011;479;53.514;9.994;2022-09-09T15:26:10;3.37;;;3.17;;
980;SDS011;479;53.514;9.994;2022-09-09T15:28:40;4.03;;;3.73;;
980;SDS011;479;53.514;9.994;2022-09-09T15:31:09;4.00;;;3.47;;
980;SDS011;479;53.514;9.994;2022-09-09T15:33:39;3.30;;;3.00;;
980;SDS011;479;53.514;9.994;2022-09-09T15:36:13;6.37;;;4.70;;
980;SDS011;479;53.514;9.994;2022-09-09T15:38:41;4.70;;;4.30;;
980;SDS011;479;53.514;9.994;2022-09-09T15:41:09;4.43;;;4.13;;
980;SDS011;479;53.514;9.994;2022-09-09T15:43:36;16.20;;;13.33;;
980;SDS011;479;53.514;9.994;2022-09-09T15:46:09;2.83;;;2.63;;
980;SDS011;479;53.514;9.994;2022-09-09T15:48:51;3.60;;;3.30;;
980;SDS011;479;53.514;9.994;2022-09-09T15:51:18;3.50;;;3.13;;
980;SDS011;479;53.514;9.994;2022-09-09T15:53:45;3.10;;;2.70;;
980;SDS011;479;53.514;9.994;2022-09-09T15:56:12;4.53;;;2.90;;
980;SDS011;479;53.514;9.994;2022-09-09T15:58:39;2.87;;;2.67;;
980;SDS011;479;53.514;9.994;2022-09-09T16:01:10;2.37;;;2.17;;
980;SDS011;479;53.514;9.994;2022-09-09T16:03:38;3.37;;;2.83;;
980;SDS011;479;53.514;9.994;2022-09-09T16:06:07;2.53;;;2.33;;